createdAt,value
2018-08-04T00:00:40.281Z,84.5014
2018-08-04T00:01:45.442Z,85.0034
2018-08-04T00:02:50.652Z,83.9967
2018-08-04T00:03:55.926Z,83.8302
2018-08-04T00:05:01.119Z,84.7524
2018-08-04T00:06:06.376Z,84.5014
2018-08-04T00:07:11.505Z,84.7524
2018-08-04T00:08:16.414Z,84.5014
2018-08-04T00:09:21.544Z,84.7524
2018-08-04T00:10:27.223Z,84.2504
2018-08-04T00:11:32.155Z,84.5014
2018-08-04T00:12:37.533Z,84.7524
2018-08-04T00:13:42.138Z,84.5014
2018-08-04T00:14:47.291Z,84.2504
2018-08-04T00:15:53.042Z,84.2504
2018-08-04T00:16:58.222Z,84.5014
2018-08-04T00:18:02.817Z,85.0034
2018-08-04T00:19:07.636Z,85.5081
2018-08-04T00:20:12.813Z,85.0034
2018-08-04T00:21:17.452Z,85.7591
2018-08-04T00:22:23.001Z,85.5081
2018-08-04T00:23:28.588Z,85.5081
2018-08-04T00:24:34.234Z,84.7524
2018-08-04T00:25:39.140Z,85.5081
2018-08-04T00:26:44.010Z,85.7591
2018-08-04T00:27:49.788Z,85.2571
2018-08-04T00:28:55.006Z,85.7591
2018-08-04T00:30:00.472Z,86.0128
2018-08-04T00:31:06.154Z,86.0128
2018-08-04T00:32:11.318Z,85.2571
2018-08-04T00:33:16.467Z,85.5081
2018-08-04T00:34:21.391Z,84.2504
2018-08-04T00:35:26.829Z,85.7591
2018-08-04T00:36:32.547Z,85.2571
2018-08-04T00:37:38.022Z,84.7524
2018-08-04T00:38:43.164Z,85.7591
2018-08-04T00:39:48.975Z,85.0034
2018-08-04T00:40:53.844Z,85.5081
2018-08-04T00:41:59.027Z,86.0128
2018-08-04T00:43:04.257Z,85.7591
2018-08-04T00:44:09.705Z,86.0128
2018-08-04T00:45:15.137Z,85.7591
2018-08-04T00:46:20.841Z,85.5081
2018-08-04T00:47:25.983Z,85.5081
2018-08-04T00:48:31.531Z,86.5148
2018-08-04T00:49:36.732Z,86.5148
2018-08-04T00:50:42.162Z,86.9349
2018-08-04T00:51:47.292Z,85.7591
2018-08-04T00:52:52.823Z,85.5081
2018-08-04T00:53:57.978Z,86.2638
2018-08-04T00:55:03.381Z,85.7591
2018-08-04T00:56:08.603Z,86.5148
2018-08-04T00:57:13.189Z,86.5148
2018-08-04T00:58:18.319Z,86.2638
2018-08-04T00:59:23.195Z,86.0128
2018-08-04T01:00:28.689Z,86.2638
2018-08-04T01:01:33.631Z,86.0128
2018-08-04T01:02:38.779Z,86.6839
2018-08-04T01:03:44.711Z,85.5081
2018-08-04T01:04:50.143Z,86.9349
2018-08-04T01:05:55.366Z,86.6839
2018-08-04T01:07:00.770Z,87.104
2018-08-04T01:08:05.668Z,87.104
2018-08-04T01:09:10.812Z,87.104
2018-08-04T01:10:16.515Z,86.5148
2018-08-04T01:11:21.667Z,87.104
2018-08-04T01:12:42.160Z,86.6839
2018-08-04T01:13:46.858Z,85.5081
2018-08-04T01:14:52.390Z,86.2638
2018-08-04T01:15:58.072Z,86.5148
2018-08-04T01:17:02.464Z,86.0128
2018-08-04T01:18:07.779Z,86.9349
2018-08-04T01:19:13.458Z,86.2638
2018-08-04T01:20:18.698Z,86.2638
2018-08-04T01:21:23.879Z,85.5081
2018-08-04T01:22:29.193Z,86.9349
2018-08-04T01:23:34.372Z,86.0128
2018-08-04T01:24:40.224Z,86.6839
2018-08-04T01:25:45.412Z,86.6839
2018-08-04T01:26:50.646Z,86.6839
2018-08-04T01:27:56.177Z,87.3551
2018-08-04T01:29:01.048Z,86.2638
2018-08-04T01:30:06.525Z,87.104
2018-08-04T01:31:12.352Z,87.3551
2018-08-04T01:32:17.209Z,87.6061
2018-08-04T01:33:21.800Z,87.3551
2018-08-04T01:34:27.620Z,87.3551
2018-08-04T01:35:32.204Z,88.3618
2018-08-04T01:36:38.074Z,87.8598
2018-08-04T01:37:42.648Z,87.3551
2018-08-04T01:38:48.143Z,89.1175
2018-08-04T01:39:54.124Z,88.1108
2018-08-04T01:40:59.326Z,88.6128
2018-08-04T01:42:03.338Z,87.3551
2018-08-04T01:43:09.031Z,87.8598
2018-08-04T01:44:14.250Z,87.8598
2018-08-04T01:45:19.398Z,88.1108
2018-08-04T01:46:25.079Z,88.1108
2018-08-04T01:47:30.234Z,88.8665
2018-08-04T01:48:36.071Z,88.1108
2018-08-04T01:49:41.233Z,88.8665
2018-08-04T01:50:46.664Z,87.3551
2018-08-04T01:51:51.875Z,88.1108
2018-08-04T01:52:56.453Z,87.6061
2018-08-04T01:54:01.313Z,87.8598
2018-08-04T01:55:06.333Z,87.3551
2018-08-04T01:56:11.771Z,87.3551
2018-08-04T01:57:16.075Z,86.5148
2018-08-04T01:58:21.530Z,86.0128
2018-08-04T01:59:26.401Z,86.0128
2018-08-04T02:00:32.058Z,86.0128
2018-08-04T02:01:36.966Z,85.7591
2018-08-04T02:02:42.393Z,86.0128
2018-08-04T02:03:48.223Z,84.7524
2018-08-04T02:04:53.122Z,85.5081
2018-08-04T02:05:58.269Z,86.2638
2018-08-04T02:07:03.694Z,85.5081
2018-08-04T02:08:09.191Z,85.7591
2018-08-04T02:09:14.058Z,86.6839
2018-08-04T02:10:19.925Z,86.2638
2018-08-04T02:11:24.870Z,86.5148
2018-08-04T02:12:30.878Z,86.5148
2018-08-04T02:13:36.077Z,87.104
2018-08-04T02:14:41.010Z,87.8598
2018-08-04T02:15:46.278Z,86.9349
2018-08-04T02:16:50.988Z,87.3551
2018-08-04T02:17:56.132Z,87.104
2018-08-04T02:19:01.577Z,87.6061
2018-08-04T02:20:05.883Z,87.104
2018-08-04T02:21:11.393Z,88.1108
2018-08-04T02:22:16.782Z,87.6061
2018-08-04T02:23:21.643Z,87.6061
2018-08-04T02:24:41.708Z,88.8665
2018-08-04T02:25:46.917Z,87.3551
2018-08-04T02:26:51.796Z,88.3618
2018-08-04T02:27:57.210Z,88.6128
2018-08-04T02:29:02.101Z,88.3618
2018-08-04T02:30:07.260Z,88.3618
2018-08-04T02:31:12.826Z,88.8665
2018-08-04T02:32:17.978Z,88.8665
2018-08-04T02:33:23.193Z,88.6128
2018-08-04T02:34:28.817Z,88.8665
2018-08-04T02:35:34.249Z,87.8598
2018-08-04T02:36:39.534Z,87.6061
2018-08-04T02:37:44.205Z,87.8598
2018-08-04T02:38:48.791Z,87.3551
2018-08-04T02:39:54.618Z,87.3551
2018-08-04T02:40:59.767Z,86.9349
2018-08-04T02:42:05.211Z,86.9349
2018-08-04T02:43:10.342Z,87.3551
2018-08-04T02:44:15.769Z,87.104
2018-08-04T02:45:20.917Z,87.6061
2018-08-04T02:46:26.324Z,87.104
2018-08-04T02:47:31.476Z,86.5148
2018-08-04T02:48:36.621Z,86.9349
2018-08-04T02:49:42.047Z,86.6839
2018-08-04T02:50:47.550Z,85.7591
2018-08-04T02:51:53.090Z,86.9349
2018-08-04T02:52:58.243Z,86.2638
2018-08-04T02:54:03.160Z,87.104
2018-08-04T02:55:08.279Z,87.104
2018-08-04T02:56:13.470Z,86.5148
2018-08-04T02:57:18.701Z,87.104
2018-08-04T02:58:23.963Z,86.9349
2018-08-04T02:59:29.159Z,86.6839
2018-08-04T03:00:34.590Z,86.9349
2018-08-04T03:01:39.486Z,86.5148
2018-08-04T03:02:44.685Z,86.5148
2018-08-04T03:03:50.603Z,85.5081
2018-08-04T03:04:55.743Z,86.5148
2018-08-04T03:06:01.258Z,86.9349
2018-08-04T03:07:06.915Z,87.3551
2018-08-04T03:08:11.805Z,86.2638
2018-08-04T03:09:17.093Z,87.3551
2018-08-04T03:10:21.942Z,86.5148
2018-08-04T03:11:26.849Z,85.7591
2018-08-04T03:12:32.243Z,86.2638
2018-08-04T03:13:37.411Z,85.5081
2018-08-04T03:14:42.266Z,85.7591
2018-08-04T03:15:47.805Z,86.0128
2018-08-04T03:16:53.041Z,85.7591
2018-08-04T03:17:57.716Z,85.7591
2018-08-04T03:19:02.306Z,85.0034
2018-08-04T03:20:07.349Z,85.2571
2018-08-04T03:21:12.813Z,85.7591
2018-08-04T03:22:18.514Z,85.2571
2018-08-04T03:23:23.941Z,84.7524
2018-08-04T03:24:29.383Z,86.0128
2018-08-04T03:25:34.536Z,85.7591
2018-08-04T03:26:39.966Z,86.5148
2018-08-04T03:27:45.673Z,85.7591
2018-08-04T03:28:51.101Z,86.2638
2018-08-04T03:29:56.339Z,86.2638
2018-08-04T03:31:01.898Z,86.5148
2018-08-04T03:32:07.071Z,86.6839
2018-08-04T03:33:12.219Z,85.7591
2018-08-04T03:34:17.999Z,86.6839
2018-08-04T03:35:22.995Z,85.7591
2018-08-04T03:36:29.006Z,86.9349
2018-08-04T03:37:34.157Z,86.9349
2018-08-04T03:38:39.062Z,86.5148
2018-08-04T03:39:45.179Z,85.5081
2018-08-04T03:40:50.330Z,86.5148
2018-08-04T03:41:55.532Z,86.5148
2018-08-04T03:43:01.201Z,85.5081
2018-08-04T03:44:06.082Z,86.0128
2018-08-04T03:45:11.086Z,85.5081
2018-08-04T03:46:16.649Z,86.0128
2018-08-04T03:47:22.078Z,85.0034
2018-08-04T03:48:28.063Z,85.0034
2018-08-04T03:49:33.200Z,85.0034
2018-08-04T03:50:38.639Z,84.7524
2018-08-04T03:51:44.028Z,85.0034
2018-08-04T03:52:49.465Z,84.7524
2018-08-04T03:53:54.898Z,84.7524
2018-08-04T03:55:01.072Z,86.2638
2018-08-04T03:56:06.516Z,86.0128
2018-08-04T03:57:11.553Z,85.2571
2018-08-04T03:58:16.946Z,86.0128
2018-08-04T03:59:22.372Z,86.0128
2018-08-04T04:00:42.237Z,85.5081
2018-08-04T04:01:47.664Z,85.2571
2018-08-04T04:02:52.884Z,85.0034
2018-08-04T04:03:58.089Z,85.0034
2018-08-04T04:05:03.249Z,84.2504
2018-08-04T04:06:08.787Z,85.0034
2018-08-04T04:07:13.935Z,83.9967
2018-08-04T04:08:19.366Z,84.2504
2018-08-04T04:09:24.580Z,84.2504
2018-08-04T04:10:44.958Z,83.5792
2018-08-04T04:11:50.176Z,84.2504
2018-08-04T04:12:55.084Z,83.5792
2018-08-04T04:13:59.952Z,83.0745
2018-08-04T04:15:04.635Z,83.5792
2018-08-04T04:16:10.150Z,83.8302
2018-08-04T04:17:15.086Z,83.8302
2018-08-04T04:18:20.312Z,84.2504
2018-08-04T04:19:25.712Z,84.2504
2018-08-04T04:20:31.176Z,84.7524
2018-08-04T04:21:37.228Z,85.0034
2018-08-04T04:22:42.659Z,85.7591
2018-08-04T04:23:47.831Z,84.2504
2018-08-04T04:24:53.230Z,84.0812
2018-08-04T04:25:58.723Z,84.0812
2018-08-04T04:27:03.884Z,84.7524
2018-08-04T04:28:09.068Z,84.7524
2018-08-04T04:29:14.320Z,84.5014
2018-08-04T04:30:19.469Z,85.7591
2018-08-04T04:31:24.952Z,85.7591
2018-08-04T04:32:29.557Z,85.0034
2018-08-04T04:33:35.056Z,84.5014
2018-08-04T04:34:40.316Z,84.2504
2018-08-04T04:35:45.756Z,84.7524
2018-08-04T04:36:51.569Z,83.5792
2018-08-04T04:37:55.935Z,84.7524
2018-08-04T04:39:01.376Z,84.2504
2018-08-04T04:40:06.252Z,84.7524
2018-08-04T04:41:11.409Z,84.2504
2018-08-04T04:42:16.870Z,84.0812
2018-08-04T04:43:22.006Z,83.8302
2018-08-04T04:44:26.598Z,84.5014
2018-08-04T04:45:32.250Z,83.8302
2018-08-04T04:46:37.195Z,84.2504
2018-08-04T04:47:42.346Z,83.5792
2018-08-04T04:48:48.098Z,82.6544
2018-08-04T04:49:53.307Z,83.8302
2018-08-04T04:50:58.755Z,83.8302
2018-08-04T04:52:03.887Z,82.1523
2018-08-04T04:53:09.422Z,82.8235
2018-08-04T04:54:14.588Z,83.8302
2018-08-04T04:55:20.167Z,82.1523
2018-08-04T04:56:25.577Z,83.5792
2018-08-04T04:57:31.092Z,84.0812
2018-08-04T04:58:36.232Z,83.5792
2018-08-04T04:59:41.104Z,85.2571
2018-08-04T05:00:46.516Z,84.5014
2018-08-04T05:01:51.862Z,84.5014
2018-08-04T05:02:56.791Z,84.5014
2018-08-04T05:04:01.920Z,84.2504
2018-08-04T05:05:07.132Z,84.2504
2018-08-04T05:06:12.639Z,83.5792
2018-08-04T05:07:18.324Z,83.8302
2018-08-04T05:08:23.269Z,83.0745
2018-08-04T05:09:29.188Z,82.8235
2018-08-04T05:10:34.617Z,82.8235
2018-08-04T05:11:40.144Z,83.0745
2018-08-04T05:12:45.822Z,83.5792
2018-08-04T05:13:50.973Z,83.5792
2018-08-04T05:14:55.604Z,83.8302
2018-08-04T05:16:00.863Z,83.5792
2018-08-04T05:17:06.028Z,83.8302
2018-08-04T05:18:11.536Z,83.5792
2018-08-04T05:19:16.464Z,82.6544
2018-08-04T05:20:21.623Z,83.8302
2018-08-04T05:21:27.269Z,84.0812
2018-08-04T05:22:32.344Z,84.0812
2018-08-04T05:23:37.487Z,83.5792
2018-08-04T05:24:43.153Z,85.0034
2018-08-04T05:25:48.118Z,83.0745
2018-08-04T05:26:52.714Z,84.2504
2018-08-04T05:27:58.103Z,84.5014
2018-08-04T05:29:02.529Z,84.5014
2018-08-04T05:30:07.119Z,84.5014
2018-08-04T05:31:12.814Z,83.8302
2018-08-04T05:32:17.772Z,84.2504
2018-08-04T05:33:22.951Z,84.7524
2018-08-04T05:34:28.931Z,85.2571
2018-08-04T05:35:34.186Z,85.0034
2018-08-04T05:36:40.015Z,85.2571
2018-08-04T05:37:45.488Z,85.2571
2018-08-04T05:38:50.955Z,85.0034
2018-08-04T05:39:56.519Z,84.7524
2018-08-04T05:41:01.956Z,85.5081
2018-08-04T05:42:06.868Z,84.2504
2018-08-04T05:43:12.677Z,84.7524
2018-08-04T05:44:17.857Z,85.2571
2018-08-04T05:45:22.439Z,85.5081
2018-08-04T05:46:42.500Z,85.0034
2018-08-04T05:47:47.390Z,85.0034
2018-08-04T05:48:53.189Z,84.2504
2018-08-04T05:49:58.102Z,84.5014
2018-08-04T05:51:03.197Z,84.5014
2018-08-04T05:52:08.428Z,85.2571
2018-08-04T05:53:13.893Z,84.0812
2018-08-04T05:54:19.122Z,83.8302
2018-08-04T05:55:24.906Z,84.5014
2018-08-04T05:56:30.050Z,83.0745
2018-08-04T05:57:36.129Z,82.8235
2018-08-04T05:58:41.562Z,84.0812
2018-08-04T05:59:47.017Z,83.8302
2018-08-04T06:00:52.818Z,83.5792
2018-08-04T06:01:57.741Z,83.5792
2018-08-04T06:03:02.109Z,83.5792
2018-08-04T06:04:07.377Z,83.8302
2018-08-04T06:05:12.803Z,84.2504
2018-08-04T06:06:18.008Z,83.5792
2018-08-04T06:07:23.972Z,84.0812
2018-08-04T06:08:28.860Z,84.2504
2018-08-04T06:09:34.076Z,83.5792
2018-08-04T06:10:39.250Z,84.5014
2018-08-04T06:11:44.125Z,84.0812
2018-08-04T06:12:49.037Z,83.5792
2018-08-04T06:13:54.211Z,84.2504
2018-08-04T06:14:59.642Z,84.2504
2018-08-04T06:16:05.461Z,83.5792
2018-08-04T06:17:10.909Z,84.0812
2018-08-04T06:18:16.336Z,84.0812
2018-08-04T06:19:22.113Z,83.8302
2018-08-04T06:20:26.729Z,84.0812
2018-08-04T06:21:31.275Z,83.0745
2018-08-04T06:22:36.165Z,84.2504
2018-08-04T06:23:41.349Z,84.5014
2018-08-04T06:24:46.746Z,83.8302
2018-08-04T06:25:51.617Z,84.0812
2018-08-04T06:26:56.483Z,83.0745
2018-08-04T06:28:02.164Z,83.0745
2018-08-04T06:29:07.304Z,82.6544
2018-08-04T06:30:11.890Z,83.0745
2018-08-04T06:31:17.372Z,82.8235
2018-08-04T06:32:22.523Z,83.8302
2018-08-04T06:33:28.109Z,83.0745
2018-08-04T06:34:33.061Z,84.0812
2018-08-04T06:35:38.485Z,83.0745
2018-08-04T06:36:44.289Z,83.8302
2018-08-04T06:37:49.762Z,83.0745
2018-08-04T06:38:54.626Z,82.6544
2018-08-04T06:40:00.118Z,82.6544
2018-08-04T06:41:05.260Z,82.1523
2018-08-04T06:42:10.424Z,80.8946
2018-08-04T06:43:15.572Z,81.9013
2018-08-04T06:44:21.019Z,81.9013
2018-08-04T06:45:41.081Z,81.9013
2018-08-04T06:46:46.224Z,82.1523
2018-08-04T06:47:51.365Z,82.4034
2018-08-04T06:48:56.490Z,82.1523
2018-08-04T06:50:01.450Z,82.6544
2018-08-04T06:51:06.314Z,82.1523
2018-08-04T06:52:12.151Z,82.1523
2018-08-04T06:53:17.069Z,82.1523
2018-08-04T06:54:22.500Z,81.6477
2018-08-04T06:55:28.038Z,82.1523
2018-08-04T06:56:33.474Z,82.4034
2018-08-04T06:57:39.065Z,82.1523
2018-08-04T06:58:44.492Z,81.9013
2018-08-04T06:59:49.920Z,82.1523
2018-08-04T07:00:55.422Z,82.4034
2018-08-04T07:02:00.598Z,81.6477
2018-08-04T07:03:05.475Z,81.6477
2018-08-04T07:04:10.937Z,83.5792
2018-08-04T07:05:16.197Z,83.5792
2018-08-04T07:06:21.758Z,82.1523
2018-08-04T07:07:42.216Z,83.0745
2018-08-04T07:08:47.642Z,84.2504
2018-08-04T07:09:53.090Z,83.0745
2018-08-04T07:10:58.559Z,82.8235
2018-08-04T07:12:03.416Z,83.0745
2018-08-04T07:13:08.672Z,82.4034
2018-08-04T07:14:13.575Z,82.4034
2018-08-04T07:15:18.772Z,82.6544
2018-08-04T07:16:24.545Z,82.4034
2018-08-04T07:17:29.712Z,82.8235
2018-08-04T07:18:35.120Z,82.6544
2018-08-04T07:19:39.976Z,82.1523
2018-08-04T07:20:45.132Z,82.8235
2018-08-04T07:21:50.882Z,82.4034
2018-08-04T07:22:56.776Z,81.6477
2018-08-04T07:24:02.021Z,80.6409
2018-08-04T07:25:07.386Z,81.9013
2018-08-04T07:26:12.582Z,81.6477
2018-08-04T07:27:18.011Z,81.6477
2018-08-04T07:28:23.559Z,82.1523
2018-08-04T07:29:28.749Z,82.8235
2018-08-04T07:30:34.005Z,82.1523
2018-08-04T07:31:39.446Z,81.9013
2018-08-04T07:32:45.010Z,81.1456
2018-08-04T07:33:50.764Z,82.1523
2018-08-04T07:34:55.917Z,81.1456
2018-08-04T07:36:01.379Z,81.6477
2018-08-04T07:37:06.302Z,80.6409
2018-08-04T07:38:11.165Z,79.9698
2018-08-04T07:39:16.312Z,80.8946
2018-08-04T07:40:22.654Z,80.4745
2018-08-04T07:41:27.757Z,80.8946
2018-08-04T07:42:33.420Z,80.6409
2018-08-04T07:43:38.660Z,80.8946
2018-08-04T07:44:43.805Z,80.8946
2018-08-04T07:45:49.359Z,80.8946
2018-08-04T07:46:54.894Z,80.8946
2018-08-04T07:47:59.759Z,80.4745
2018-08-04T07:49:05.711Z,80.4745
2018-08-04T07:50:10.735Z,80.6409
2018-08-04T07:51:15.897Z,81.1456
2018-08-04T07:52:21.636Z,80.2208
2018-08-04T07:53:26.801Z,80.2208
2018-08-04T07:54:32.401Z,80.2208
2018-08-04T07:55:37.829Z,80.6409
2018-08-04T07:56:43.278Z,79.7188
2018-08-04T07:57:48.873Z,80.2208
2018-08-04T07:58:53.784Z,80.2208
2018-08-04T07:59:59.238Z,80.2208
2018-08-04T08:01:05.025Z,80.8946
2018-08-04T08:02:10.191Z,81.3966
2018-08-04T08:03:15.615Z,81.1456
2018-08-04T08:04:21.113Z,80.2208
2018-08-04T08:05:26.629Z,81.6477
2018-08-04T08:06:32.462Z,80.8946
2018-08-04T08:07:37.900Z,80.4745
2018-08-04T08:08:43.329Z,80.6409
2018-08-04T08:09:49.243Z,80.3899
2018-08-04T08:10:54.618Z,80.8946
2018-08-04T08:12:00.120Z,80.6409
2018-08-04T08:13:05.798Z,81.1456
2018-08-04T08:14:10.590Z,80.4745
2018-08-04T08:15:16.017Z,81.3966
2018-08-04T08:16:21.163Z,80.8946
2018-08-04T08:17:26.020Z,80.6409
2018-08-04T08:18:31.717Z,81.3966
2018-08-04T08:19:36.577Z,80.6409
2018-08-04T08:20:41.449Z,80.3899
2018-08-04T08:21:46.997Z,80.6409
2018-08-04T08:22:52.426Z,81.1456
2018-08-04T08:23:57.303Z,80.2208
2018-08-04T08:25:02.549Z,80.8946
2018-08-04T08:26:07.419Z,80.4745
2018-08-04T08:27:12.566Z,80.4745
2018-08-04T08:28:18.030Z,81.1456
2018-08-04T08:29:22.935Z,80.6409
2018-08-04T08:30:28.965Z,80.6409
2018-08-04T08:31:34.653Z,80.3899
2018-08-04T08:32:40.809Z,79.4678
2018-08-04T08:33:47.076Z,79.9698
2018-08-04T08:34:52.539Z,79.7188
2018-08-04T08:35:57.967Z,79.7188
2018-08-04T08:37:03.668Z,79.4678
2018-08-04T08:38:08.867Z,79.9698
2018-08-04T08:39:14.295Z,79.9698
2018-08-04T08:40:20.188Z,79.9698
2018-08-04T08:41:25.703Z,79.4678
2018-08-04T08:42:31.007Z,79.7188
2018-08-04T08:43:36.504Z,78.712
2018-08-04T08:44:41.940Z,78.9631
2018-08-04T08:45:47.345Z,79.4678
2018-08-04T08:46:52.494Z,79.4678
2018-08-04T08:47:57.787Z,79.9698
2018-08-04T08:49:03.333Z,80.3899
2018-08-04T08:50:08.836Z,80.2208
2018-08-04T08:51:13.710Z,79.9698
2018-08-04T08:52:19.257Z,80.3899
2018-08-04T08:53:24.531Z,80.1389
2018-08-04T08:54:30.591Z,78.9631
2018-08-04T08:55:35.760Z,79.4678
2018-08-04T08:56:41.690Z,80.1389
2018-08-04T08:57:47.366Z,80.8946
2018-08-04T08:58:52.232Z,79.7188
2018-08-04T08:59:57.589Z,79.9698
2018-08-04T09:01:02.528Z,79.4678
2018-08-04T09:02:07.425Z,78.9631
2018-08-04T09:03:12.739Z,79.7188
2018-08-04T09:04:17.858Z,79.4678
2018-08-04T09:05:23.309Z,79.4678
2018-08-04T09:06:29.227Z,79.4678
2018-08-04T09:07:34.373Z,79.2141
2018-08-04T09:08:39.360Z,79.2141
2018-08-04T09:09:45.344Z,78.9631
2018-08-04T09:10:50.483Z,78.712
2018-08-04T09:11:55.662Z,78.712
2018-08-04T09:13:00.672Z,78.9631
2018-08-04T09:14:06.117Z,80.1389
2018-08-04T09:15:11.587Z,78.712
2018-08-04T09:16:17.174Z,78.9631
2018-08-04T09:17:22.651Z,80.1389
2018-08-04T09:18:28.683Z,79.7188
2018-08-04T09:19:33.548Z,79.7188
2018-08-04T09:20:38.979Z,79.2141
2018-08-04T09:21:44.829Z,79.7188
2018-08-04T09:22:49.990Z,79.9698
2018-08-04T09:23:54.883Z,80.3899
2018-08-04T09:25:00.014Z,79.7188
2018-08-04T09:26:05.160Z,79.9698
2018-08-04T09:27:10.078Z,79.4678
2018-08-04T09:28:15.472Z,78.9631
2018-08-04T09:29:20.996Z,79.7188
2018-08-04T09:30:40.772Z,78.712
2018-08-04T09:31:45.955Z,79.7188
2018-08-04T09:32:51.093Z,79.2141
2018-08-04T09:33:56.512Z,79.8879
2018-08-04T09:35:01.739Z,79.2141
2018-08-04T09:36:07.168Z,80.1389
2018-08-04T09:37:13.024Z,80.1389
2018-08-04T09:38:17.888Z,80.1389
2018-08-04T09:39:23.383Z,79.4678
2018-08-04T09:40:28.714Z,80.8946
2018-08-04T09:41:33.580Z,80.1389
2018-08-04T09:42:39.211Z,80.1389
2018-08-04T09:43:44.645Z,80.8946
2018-08-04T09:44:49.831Z,80.8946
2018-08-04T09:45:55.357Z,81.3966
2018-08-04T09:47:00.784Z,81.1456
2018-08-04T09:48:05.942Z,81.6477
2018-08-04T09:49:11.050Z,81.9013
2018-08-04T09:50:15.639Z,81.6477
2018-08-04T09:51:20.811Z,81.6477
2018-08-04T09:52:26.288Z,81.1456
2018-08-04T09:53:31.771Z,81.6477
2018-08-04T09:54:37.699Z,81.9013
2018-08-04T09:55:42.861Z,81.3966
2018-08-04T09:56:48.327Z,81.6477
2018-08-04T09:57:53.769Z,81.9013
2018-08-04T09:58:59.266Z,81.9013
2018-08-04T10:00:04.136Z,82.4034
2018-08-04T10:01:09.287Z,82.4034
2018-08-04T10:02:14.713Z,82.6544
2018-08-04T10:03:20.258Z,82.6544
2018-08-04T10:04:25.139Z,81.9013
2018-08-04T10:05:30.004Z,82.8235
2018-08-04T10:06:35.831Z,81.6477
2018-08-04T10:07:40.990Z,81.9013
2018-08-04T10:08:46.135Z,81.1456
2018-08-04T10:09:51.815Z,82.99
2018-08-04T10:10:56.766Z,81.6477
2018-08-04T10:12:01.936Z,82.6544
2018-08-04T10:13:07.300Z,81.9013
2018-08-04T10:14:12.524Z,81.9013
2018-08-04T10:15:17.672Z,82.1523
2018-08-04T10:16:23.420Z,80.8946
2018-08-04T10:17:28.925Z,81.6477
2018-08-04T10:18:34.341Z,82.1523
2018-08-04T10:19:39.812Z,81.6477
2018-08-04T10:20:44.773Z,81.6477
2018-08-04T10:21:49.890Z,82.6544
2018-08-04T10:22:55.123Z,81.3966
2018-08-04T10:24:00.715Z,82.4034
2018-08-04T10:25:06.322Z,80.6409
2018-08-04T10:26:11.970Z,81.3966
2018-08-04T10:27:17.174Z,82.4034
2018-08-04T10:28:22.292Z,81.3966
2018-08-04T10:29:26.956Z,81.9013
2018-08-04T10:30:32.376Z,81.3966
2018-08-04T10:31:37.517Z,81.6477
2018-08-04T10:32:43.696Z,80.8946
2018-08-04T10:33:49.546Z,81.3966
2018-08-04T10:34:54.701Z,81.3966
2018-08-04T10:35:59.882Z,81.1456
2018-08-04T10:37:05.097Z,80.8946
2018-08-04T10:38:10.021Z,81.9013
2018-08-04T10:39:15.528Z,82.4034
2018-08-04T10:40:21.052Z,82.1523
2018-08-04T10:41:26.480Z,81.6477
2018-08-04T10:42:32.466Z,81.9013
2018-08-04T10:43:37.395Z,82.1523
2018-08-04T10:44:42.851Z,82.5698
2018-08-04T10:45:48.125Z,80.6409
2018-08-04T10:46:52.794Z,81.6477
2018-08-04T10:47:57.954Z,81.1456
2018-08-04T10:49:03.070Z,82.5698
2018-08-04T10:50:08.595Z,82.1523
2018-08-04T10:51:13.744Z,82.4034
2018-08-04T10:52:18.877Z,82.4034
2018-08-04T10:53:24.121Z,82.7389
2018-08-04T10:54:30.111Z,82.5698
2018-08-04T10:55:35.538Z,82.7389
2018-08-04T10:56:40.910Z,83.7457
2018-08-04T10:57:46.045Z,82.99
2018-08-04T10:58:51.473Z,82.99
2018-08-04T10:59:56.677Z,82.5698
2018-08-04T11:01:02.079Z,82.4034
2018-08-04T11:02:07.003Z,83.7457
2018-08-04T11:03:12.313Z,82.7389
2018-08-04T11:04:18.001Z,83.4946
2018-08-04T11:05:22.880Z,83.4946
2018-08-04T11:06:28.832Z,82.4034
2018-08-04T11:07:33.975Z,82.7389
2018-08-04T11:08:39.418Z,82.7389
2018-08-04T11:09:44.970Z,82.4034
2018-08-04T11:10:50.143Z,82.5698
2018-08-04T11:11:55.287Z,83.4946
2018-08-04T11:13:00.977Z,82.99
2018-08-04T11:14:05.842Z,84.2504
2018-08-04T11:15:11.322Z,83.4946
2018-08-04T11:16:17.216Z,84.7524
2018-08-04T11:17:22.649Z,82.7389
2018-08-04T11:18:28.892Z,83.7457
2018-08-04T11:19:34.322Z,83.7457
2018-08-04T11:20:39.750Z,83.4946
2018-08-04T11:21:45.176Z,83.4946
2018-08-04T11:22:50.071Z,83.4946
2018-08-04T11:23:55.220Z,82.99
2018-08-04T11:25:00.591Z,84.5014
2018-08-04T11:26:06.024Z,84.2504
2018-08-04T11:27:11.175Z,82.99
2018-08-04T11:28:16.587Z,84.2504
2018-08-04T11:29:22.031Z,83.9967
2018-08-04T11:30:42.330Z,84.2504
2018-08-04T11:31:47.158Z,84.5014
2018-08-04T11:32:52.618Z,84.2504
2018-08-04T11:33:57.957Z,85.0034
2018-08-04T11:35:02.838Z,85.0034
2018-08-04T11:36:07.740Z,85.0034
2018-08-04T11:37:12.850Z,83.9967
2018-08-04T11:38:17.794Z,84.7524
2018-08-04T11:39:23.006Z,85.2571
2018-08-04T11:40:28.686Z,85.7591
2018-08-04T11:41:33.596Z,86.1792
2018-08-04T11:42:39.198Z,85.6772
2018-08-04T11:43:44.380Z,85.2571
2018-08-04T11:44:49.522Z,85.2571
2018-08-04T11:45:55.217Z,85.2571
2018-08-04T11:47:00.093Z,85.2571
2018-08-04T11:48:05.312Z,85.6772
2018-08-04T11:49:11.151Z,85.6772
2018-08-04T11:50:15.558Z,85.6772
2018-08-04T11:51:20.703Z,85.2571
2018-08-04T11:52:26.385Z,85.2571
2018-08-04T11:53:31.527Z,85.2571
2018-08-04T11:54:36.808Z,85.6772
2018-08-04T11:55:41.955Z,85.5081
2018-08-04T11:56:47.403Z,85.6772
2018-08-04T11:57:52.906Z,86.1792
2018-08-04T11:58:58.336Z,85.0034
2018-08-04T12:00:03.231Z,85.6772
2018-08-04T12:01:08.723Z,85.5081
2018-08-04T12:02:13.874Z,85.2571
2018-08-04T12:03:19.354Z,85.5081
2018-08-04T12:04:24.925Z,85.0034
2018-08-04T12:05:30.306Z,85.0034
2018-08-04T12:06:35.968Z,85.4235
2018-08-04T12:07:41.397Z,85.4235
2018-08-04T12:08:46.552Z,85.6772
2018-08-04T12:09:52.316Z,85.4235
2018-08-04T12:10:57.481Z,84.7524
2018-08-04T12:12:02.678Z,85.6772
2018-08-04T12:13:07.851Z,85.9282
2018-08-04T12:14:13.008Z,85.4235
2018-08-04T12:15:18.310Z,86.1792
2018-08-04T12:16:24.090Z,86.4303
2018-08-04T12:17:29.280Z,85.9282
2018-08-04T12:18:35.102Z,85.6772
2018-08-04T12:19:40.600Z,86.4303
2018-08-04T12:20:45.470Z,85.6772
2018-08-04T12:21:50.875Z,85.9282
2018-08-04T12:22:55.469Z,85.6772
2018-08-04T12:24:00.923Z,85.6772
2018-08-04T12:25:05.491Z,86.6839
2018-08-04T12:26:10.938Z,86.8504
2018-08-04T12:27:16.465Z,85.6772
2018-08-04T12:28:22.175Z,85.6772
2018-08-04T12:29:27.605Z,86.4303
2018-08-04T12:30:33.649Z,86.8504
2018-08-04T12:31:38.821Z,86.4303
2018-08-04T12:32:44.268Z,86.6839
2018-08-04T12:33:50.111Z,85.6772
2018-08-04T12:34:55.586Z,86.1792
2018-08-04T12:36:01.020Z,85.9282
2018-08-04T12:37:06.519Z,85.6772
2018-08-04T12:38:11.735Z,88.1108
2018-08-04T12:39:17.164Z,87.104
2018-08-04T12:40:22.865Z,87.6061
2018-08-04T12:41:27.779Z,86.8504
2018-08-04T12:42:33.707Z,87.6061
2018-08-04T12:43:38.867Z,86.1792
2018-08-04T12:44:44.366Z,86.6839
2018-08-04T12:45:50.258Z,86.8504
2018-08-04T12:46:55.132Z,86.8504
2018-08-04T12:48:00.012Z,87.3551
2018-08-04T12:49:05.315Z,86.4303
2018-08-04T12:50:10.445Z,87.3551
2018-08-04T12:51:16.020Z,87.3551
2018-08-04T12:52:21.532Z,87.3551
2018-08-04T12:53:27.040Z,87.3551
2018-08-04T12:54:32.964Z,86.6839
2018-08-04T12:55:37.879Z,87.6061
2018-08-04T12:56:43.332Z,87.104
2018-08-04T12:57:48.813Z,87.104
2018-08-04T12:58:54.265Z,87.6061
2018-08-04T12:59:59.436Z,87.6061
2018-08-04T13:01:04.870Z,88.0262
2018-08-04T13:02:10.453Z,87.6061
2018-08-04T13:03:15.341Z,87.7752
2018-08-04T13:04:21.103Z,87.7752
2018-08-04T13:05:26.660Z,88.2772
2018-08-04T13:06:32.215Z,87.7752
2018-08-04T13:07:37.689Z,87.7752
2018-08-04T13:08:43.486Z,87.6061
2018-08-04T13:09:48.741Z,87.7752
2018-08-04T13:10:53.895Z,88.2772
2018-08-04T13:11:59.295Z,88.7819
2018-08-04T13:13:04.597Z,88.5309